Time;durP1;ratioP1;P1;durP2;ratioP2;P2;SDS_P1;SDS_P2;PMS_P1;PMS_P2;Temp;Humidity;BMP_temperature;BMP_pressure;BME280_temperature;BME280_humidity;BME280_pressure;Samples;Min_cycle;Max_cycle;Signal;HPM_P1;HPM_P2
2022/10/11 00:00:48;;;;;;;;;;;11.40;99.90;;;;;;5012455;28;19941;-66
2022/10/11 00:03:15;;;;;;;;;;;11.40;99.90;;;;;;5014142;28;20478;-68
2022/10/11 00:05:43;;;;;;;;;;;11.40;99.90;;;;;;5013049;28;20052;-66
2022/10/11 00:08:10;;;;;;;;;;;11.40;99.90;;;;;;5011660;28;19936;-66
2022/10/11 00:10:37;;;;;;;;;;;11.30;99.90;;;;;;5010412;28;20358;-70
2022/10/11 00:13:05;;;;;;;;;;;11.30;99.90;;;;;;5010770;28;19936;-66
2022/10/11 00:15:31;;;;;;;;;;;11.30;99.90;;;;;;5001475;28;19941;-67
2022/10/11 00:17:58;;;;;;;;;;;11.30;99.90;;;;;;5011576;28;19925;-68
2022/10/11 00:20:30;;;;;;;;;;;11.20;99.90;;;;;;5012600;28;20423;-67
2022/10/11 00:22:57;;;;;;;;;;;11.30;99.90;;;;;;5009608;28;20000;-68
2022/10/11 00:25:24;;;;;;;;;;;11.20;99.90;;;;;;5014511;28;19936;-69
2022/10/11 00:27:51;;;;;;;;;;;11.20;99.90;;;;;;5010595;28;19947;-69
2022/10/11 00:30:18;;;;;;;;;;;11.20;99.90;;;;;;5013578;28;20443;-68
2022/10/11 00:32:44;;;;;;;;;;;11.20;99.90;;;;;;5011836;28;20301;-67
2022/10/11 00:35:11;;;;;;;;;;;11.10;99.90;;;;;;5016782;28;20474;-70
2022/10/11 00:37:38;;;;;;;;;;;11.10;99.90;;;;;;5013789;28;19936;-68
2022/10/11 00:40:07;;;;;;;;;;;11.10;99.90;;;;;;5012759;28;19925;-67
2022/10/11 00:42:34;;;;;;;;;;;11.10;99.90;;;;;;5016755;28;19925;-68
2022/10/11 00:45:19;;;;;;;;;;;11.10;99.90;;;;;;5012008;28;19933;-66
2022/10/11 00:47:46;;;;;;;;;;;11.10;99.90;;;;;;5011002;28;20428;-67
2022/10/11 00:50:21;;;;;;;;;;;11.10;99.90;;;;;;5010026;28;20012;-68
2022/10/11 00:52:51;;;;;;;;;;;11.10;99.90;;;;;;5010146;28;19925;-70
2022/10/11 00:55:19;;;;;;;;;;;11.10;99.90;;;;;;5008117;28;19936;-67
2022/10/11 00:57:48;;;;;;;;;;;11.10;99.90;;;;;;5010834;28;19932;-69
2022/10/11 01:00:15;;;;;;;;;;;11.10;99.90;;;;;;5013322;28;19934;-71
2022/10/11 01:02:42;;;;;;;;;;;11.10;99.90;;;;;;5012458;28;20017;-66
2022/10/11 01:05:10;;;;;;;;;;;11.10;99.90;;;;;;5007961;28;19933;-66
2022/10/11 01:07:56;;;;;;;;;;;11.10;99.90;;;;;;5012227;28;20026;-72
2022/10/11 01:10:23;;;;;;;;;;;11.10;99.90;;;;;;5014220;28;19980;-68
2022/10/11 01:12:50;;;;;;;;;;;11.10;99.90;;;;;;5017148;28;20019;-70
2022/10/11 01:15:22;;;;;;;;;;;11.10;99.90;;;;;;5014010;28;19944;-68
2022/10/11 01:17:59;;;;;;;;;;;11.10;99.90;;;;;;5011208;28;20284;-69
2022/10/11 01:20:29;;;;;;;;;;;11.10;99.90;;;;;;5029415;28;20322;-67
2022/10/11 01:23:15;;;;;;;;;;;11.10;99.90;;;;;;5015997;28;19944;-66
2022/10/11 01:25:54;;;;;;;;;;;11.20;99.90;;;;;;5016715;28;19925;-66
2022/10/11 01:28:20;;;;;;;;;;;11.10;99.90;;;;;;5018439;28;19987;-66
2022/10/11 01:30:48;;;;;;;;;;;11.10;99.90;;;;;;5020524;28;20367;-68
2022/10/11 01:33:19;;;;;;;;;;;11.20;99.90;;;;;;5012907;28;20028;-72
2022/10/11 01:35:49;;;;;;;;;;;11.20;99.90;;;;;;5015240;28;20000;-66
2022/10/11 01:38:20;;;;;;;;;;;11.30;99.90;;;;;;5014316;28;19925;-68
2022/10/11 01:40:53;;;;;;;;;;;11.40;99.90;;;;;;5017378;28;19929;-66
2022/10/11 01:43:20;;;;;;;;;;;11.40;99.90;;;;;;5013553;28;20246;-67
2022/10/11 01:45:50;;;;;;;;;;;11.50;99.90;;;;;;5017543;28;20426;-67
2022/10/11 01:48:16;;;;;;;;;;;11.50;99.90;;;;;;5015011;28;19947;-68
2022/10/11 01:50:45;;;;;;;;;;;11.50;99.90;;;;;;5018669;28;19925;-73
2022/10/11 01:53:24;;;;;;;;;;;11.50;99.90;;;;;;5016577;28;19947;-66
2022/10/11 01:55:56;;;;;;;;;;;11.50;99.90;;;;;;5014887;28;19933;-69
2022/10/11 01:58:29;;;;;;;;;;;11.50;99.90;;;;;;5014258;28;20543;-66
2022/10/11 02:01:12;;;;;;;;;;;11.50;99.90;;;;;;5005521;28;20291;-69
2022/10/11 02:03:45;;;;;;;;;;;11.50;99.90;;;;;;5015706;28;20376;-69
2022/10/11 02:06:16;;;;;;;;;;;11.50;99.90;;;;;;5015408;28;20024;-66
2022/10/11 02:08:49;;;;;;;;;;;11.50;99.90;;;;;;5013948;28;19952;-72
2022/10/11 02:11:21;;;;;;;;;;;11.50;99.90;;;;;;5016268;28;19937;-69
2022/10/11 02:13:55;;;;;;;;;;;11.50;99.90;;;;;;5016685;28;20437;-72
2022/10/11 02:16:25;;;;;;;;;;;11.40;99.90;;;;;;5015331;28;20015;-67
2022/10/11 02:18:53;;;;;;;;;;;11.40;99.90;;;;;;5017768;28;19925;-67
2022/10/11 02:21:21;;;;;;;;;;;11.40;99.90;;;;;;5009529;28;19940;-67
2022/10/11 02:23:53;;;;;;;;;;;11.40;99.90;;;;;;5021009;28;20294;-65
2022/10/11 02:26:20;;;;;;;;;;;11.40;99.90;;;;;;5020036;28;19972;-66
2022/10/11 02:28:48;;;;;;;;;;;11.30;99.90;;;;;;5020731;28;19968;-68
2022/10/11 02:31:16;;;;;;;;;;;11.20;99.90;;;;;;5019297;28;20020;-72
2022/10/11 02:33:52;;;;;;;;;;;11.10;99.90;;;;;;5018903;28;19932;-66
2022/10/11 02:36:23;;;;;;;;;;;11.00;99.90;;;;;;5016459;28;19994;-65
2022/10/11 02:38:53;;;;;;;;;;;11.00;99.90;;;;;;5017929;28;19929;-65
2022/10/11 02:41:24;;;;;;;;;;;10.80;99.90;;;;;;5011407;28;19929;-67
2022/10/11 02:43:56;;;;;;;;;;;10.80;99.90;;;;;;5017091;28;19944;-68
2022/10/11 02:46:24;;;;;;;;;;;10.80;99.90;;;;;;5016916;28;19940;-70
2022/10/11 02:48:50;;;;;;;;;;;10.80;99.90;;;;;;5017227;28;20450;-67
2022/10/11 02:51:17;;;;;;;;;;;10.80;99.90;;;;;;5019059;28;19948;-65
2022/10/11 02:53:44;;;;;;;;;;;10.70;99.90;;;;;;5015119;28;20579;-65
2022/10/11 02:56:11;;;;;;;;;;;10.70;99.90;;;;;;5017447;28;20513;-67
2022/10/11 02:58:38;;;;;;;;;;;10.70;99.90;;;;;;5017030;28;20023;-65
2022/10/11 03:01:05;;;;;;;;;;;10.70;99.90;;;;;;5016077;28;19925;-68
2022/10/11 03:03:32;;;;;;;;;;;10.70;99.90;;;;;;5018448;28;20024;-66
2022/10/11 03:05:59;;;;;;;;;;;10.70;99.90;;;;;;5016704;28;19957;-66
2022/10/11 03:08:26;;;;;;;;;;;10.70;99.90;;;;;;5014503;28;19926;-66
2022/10/11 03:10:53;;;;;;;;;;;10.60;99.90;;;;;;5013685;28;19929;-68
2022/10/11 03:13:20;;;;;;;;;;;10.60;99.90;;;;;;5012700;28;19966;-66
2022/10/11 03:15:51;;;;;;;;;;;10.50;99.90;;;;;;5010078;28;19933;-74
2022/10/11 03:18:32;;;;;;;;;;;10.50;99.90;;;;;;5017909;28;19941;-65
2022/10/11 03:20:59;;;;;;;;;;;10.50;99.90;;;;;;5013742;28;20349;-67
2022/10/11 03:23:26;;;;;;;;;;;10.50;99.90;;;;;;5008743;28;20237;-65
2022/10/11 03:25:53;;;;;;;;;;;10.50;99.90;;;;;;5019729;28;20023;-70
2022/10/11 03:28:19;;;;;;;;;;;10.60;99.90;;;;;;5019440;28;19926;-67
2022/10/11 03:30:47;;;;;;;;;;;10.60;99.90;;;;;;5017977;28;20011;-65
2022/10/11 03:33:14;;;;;;;;;;;10.60;99.90;;;;;;5016004;28;20354;-67
2022/10/11 03:35:42;;;;;;;;;;;10.70;99.90;;;;;;5009903;28;20016;-68
2022/10/11 03:38:11;;;;;;;;;;;10.70;99.90;;;;;;5014091;28;19935;-65
2022/10/11 03:40:39;;;;;;;;;;;10.80;99.90;;;;;;5015149;28;20300;-66
2022/10/11 03:43:06;;;;;;;;;;;10.80;99.90;;;;;;5018258;28;19929;-68
2022/10/11 03:45:33;;;;;;;;;;;10.90;99.90;;;;;;5012426;28;19951;-68
2022/10/11 03:48:00;;;;;;;;;;;10.90;99.90;;;;;;5005663;28;19935;-66
2022/10/11 03:50:27;;;;;;;;;;;10.90;99.90;;;;;;5009992;28;19935;-69
2022/10/11 03:52:54;;;;;;;;;;;10.90;99.90;;;;;;5016671;28;19932;-70
2022/10/11 03:55:20;;;;;;;;;;;10.90;99.90;;;;;;5012723;28;20020;-65
2022/10/11 03:57:47;;;;;;;;;;;11.00;99.90;;;;;;5011474;28;19929;-67
2022/10/11 04:00:14;;;;;;;;;;;10.90;99.90;;;;;;5015035;28;20023;-69
2022/10/11 04:02:41;;;;;;;;;;;10.90;99.90;;;;;;5014744;28;20015;-66
2022/10/11 04:05:08;;;;;;;;;;;10.90;99.90;;;;;;5016441;28;19929;-68
2022/10/11 04:07:34;;;;;;;;;;;10.90;99.90;;;;;;5012051;28;20346;-68
2022/10/11 04:10:01;;;;;;;;;;;10.80;99.90;;;;;;5018557;28;19925;-66
2022/10/11 04:12:28;;;;;;;;;;;10.80;99.90;;;;;;5017872;28;19947;-71
2022/10/11 04:14:55;;;;;;;;;;;10.70;99.90;;;;;;5018282;28;19979;-66
2022/10/11 04:17:22;;;;;;;;;;;10.70;99.90;;;;;;5010994;28;19929;-67
2022/10/11 04:19:48;;;;;;;;;;;10.60;99.90;;;;;;5020027;28;19929;-67
2022/10/11 04:22:15;;;;;;;;;;;10.60;99.90;;;;;;5017178;28;20031;-66
2022/10/11 04:24:42;;;;;;;;;;;10.60;99.90;;;;;;5018559;28;20355;-67
2022/10/11 04:27:09;;;;;;;;;;;10.60;99.90;;;;;;5028738;28;20384;-66
2022/10/11 04:29:35;;;;;;;;;;;10.60;99.90;;;;;;5012316;28;19933;-72
2022/10/11 04:32:02;;;;;;;;;;;10.60;99.90;;;;;;5016036;28;19929;-68
2022/10/11 04:34:30;;;;;;;;;;;10.60;99.90;;;;;;5017428;28;19956;-70
2022/10/11 04:36:57;;;;;;;;;;;10.50;99.90;;;;;;5008981;28;20238;-68
2022/10/11 04:39:23;;;;;;;;;;;10.50;99.90;;;;;;5016557;28;20461;-66
2022/10/11 04:41:50;;;;;;;;;;;10.50;99.90;;;;;;5010374;28;19929;-66
2022/10/11 04:44:17;;;;;;;;;;;10.50;99.90;;;;;;5008121;28;19930;-65
2022/10/11 04:46:44;;;;;;;;;;;10.50;99.90;;;;;;5013867;28;19931;-72
2022/10/11 04:49:11;;;;;;;;;;;10.50;99.90;;;;;;5020962;28;19941;-70
2022/10/11 04:51:37;;;;;;;;;;;10.50;99.90;;;;;;5012096;28;20037;-66
2022/10/11 04:54:04;;;;;;;;;;;10.50;99.90;;;;;;5009610;28;19929;-69
2022/10/11 04:56:31;;;;;;;;;;;10.40;99.90;;;;;;5013046;28;19944;-65
2022/10/11 04:58:58;;;;;;;;;;;10.40;99.90;;;;;;5010931;28;20100;-66
2022/10/11 05:01:25;;;;;;;;;;;10.40;99.90;;;;;;5011721;28;19929;-69
2022/10/11 05:03:51;;;;;;;;;;;10.40;99.90;;;;;;5007283;28;19929;-66
2022/10/11 05:06:18;;;;;;;;;;;10.40;99.90;;;;;;5014777;28;19933;-66
2022/10/11 05:08:45;;;;;;;;;;;10.30;99.90;;;;;;5004008;28;19974;-71
2022/10/11 05:11:13;;;;;;;;;;;10.30;99.90;;;;;;5002190;28;19940;-65
2022/10/11 05:13:42;;;;;;;;;;;10.30;99.90;;;;;;5017374;28;20267;-66
2022/10/11 05:16:09;;;;;;;;;;;10.30;99.90;;;;;;5008105;28;19925;-70
2022/10/11 05:18:38;;;;;;;;;;;10.30;99.90;;;;;;5011458;28;20055;-67
2022/10/11 05:21:13;;;;;;;;;;;10.30;99.90;;;;;;5012260;28;19925;-69
2022/10/11 05:23:40;;;;;;;;;;;10.30;99.90;;;;;;5007759;28;20020;-66
2022/10/11 05:26:07;;;;;;;;;;;10.30;99.90;;;;;;5010255;28;19939;-66
2022/10/11 05:28:34;;;;;;;;;;;10.20;99.90;;;;;;5014778;28;19983;-77
2022/10/11 05:31:01;;;;;;;;;;;10.30;99.90;;;;;;5011342;28;19941;-67
2022/10/11 05:33:28;;;;;;;;;;;10.30;99.90;;;;;;5011760;28;19926;-66
2022/10/11 05:35:55;;;;;;;;;;;10.20;99.90;;;;;;5011836;28;20380;-65
2022/10/11 05:38:21;;;;;;;;;;;10.20;99.90;;;;;;5008858;28;19957;-68
2022/10/11 05:40:48;;;;;;;;;;;10.30;99.90;;;;;;5016807;28;19940;-66
2022/10/11 05:43:15;;;;;;;;;;;10.30;99.90;;;;;;5008987;28;19925;-65
2022/10/11 05:45:42;;;;;;;;;;;10.20;99.90;;;;;;5007294;28;19936;-67
2022/10/11 05:48:09;;;;;;;;;;;10.30;99.90;;;;;;5009771;28;19930;-68
2022/10/11 05:50:36;;;;;;;;;;;10.20;99.90;;;;;;5015327;28;20466;-65
2022/10/11 05:53:04;;;;;;;;;;;10.20;99.90;;;;;;5007872;28;19940;-65
2022/10/11 05:55:40;;;;;;;;;;;10.20;99.90;;;;;;5019871;28;20333;-64
2022/10/11 05:58:09;;;;;;;;;;;10.30;99.90;;;;;;5012553;28;20032;-65
2022/10/11 06:00:39;;;;;;;;;;;10.30;99.90;;;;;;5009568;28;19933;-64
2022/10/11 06:03:07;;;;;;;;;;;10.30;99.90;;;;;;5008732;28;20681;-69
2022/10/11 06:05:34;;;;;;;;;;;10.20;99.90;;;;;;5018733;28;19926;-67
2022/10/11 06:08:01;;;;;;;;;;;10.30;99.90;;;;;;5014450;28;19972;-68
2022/10/11 06:10:28;;;;;;;;;;;10.30;99.90;;;;;;5011757;28;20008;-65
2022/10/11 06:12:55;;;;;;;;;;;10.30;99.90;;;;;;5016355;28;19929;-69
2022/10/11 06:15:22;;;;;;;;;;;10.30;99.90;;;;;;5014243;28;19928;-66
2022/10/11 06:17:48;;;;;;;;;;;10.30;99.90;;;;;;5010478;28;20353;-68
2022/10/11 06:20:15;;;;;;;;;;;10.30;99.90;;;;;;5011177;28;19951;-70
2022/10/11 06:22:42;;;;;;;;;;;10.30;99.90;;;;;;5009203;28;19933;-66
2022/10/11 06:25:09;;;;;;;;;;;10.30;99.90;;;;;;5018240;28;20028;-67
2022/10/11 06:27:36;;;;;;;;;;;10.30;99.90;;;;;;5012873;28;19973;-65
2022/10/11 06:30:03;;;;;;;;;;;10.30;99.90;;;;;;5014488;28;20083;-67
2022/10/11 06:32:30;;;;;;;;;;;10.30;99.90;;;;;;5010434;28;19930;-66
2022/10/11 06:34:57;;;;;;;;;;;10.30;99.90;;;;;;5011453;28;19933;-64
2022/10/11 06:37:24;;;;;;;;;;;10.30;99.90;;;;;;5011620;28;19926;-65
2022/10/11 06:39:51;;;;;;;;;;;10.30;99.90;;;;;;5011347;28;19929;-65
2022/10/11 06:42:17;;;;;;;;;;;10.30;99.90;;;;;;5013766;28;20013;-66
2022/10/11 06:44:44;;;;;;;;;;;10.30;99.90;;;;;;5014439;28;19931;-65
2022/10/11 06:47:11;;;;;;;;;;;10.30;99.90;;;;;;5011878;28;20019;-68
2022/10/11 06:49:38;;;;;;;;;;;10.30;99.90;;;;;;5019963;28;20419;-66
2022/10/11 06:52:04;;;;;;;;;;;10.30;99.90;;;;;;5012538;28;20580;-67
2022/10/11 06:54:31;;;;;;;;;;;10.30;99.90;;;;;;5011371;28;19937;-66
2022/10/11 06:56:58;;;;;;;;;;;10.30;99.90;;;;;;5013699;28;20291;-63
2022/10/11 06:59:25;;;;;;;;;;;10.30;99.90;;;;;;5009498;28;19933;-65
2022/10/11 07:01:51;;;;;;;;;;;10.30;99.90;;;;;;5014619;28;20303;-66
2022/10/11 07:04:18;;;;;;;;;;;10.30;99.90;;;;;;5013730;28;20638;-65
2022/10/11 07:06:45;;;;;;;;;;;10.30;99.90;;;;;;5012982;28;19933;-67
2022/10/11 07:09:12;;;;;;;;;;;10.30;99.90;;;;;;5011345;28;19925;-65
2022/10/11 07:11:38;;;;;;;;;;;10.30;99.90;;;;;;5013089;28;19960;-64
2022/10/11 07:14:06;;;;;;;;;;;10.30;99.90;;;;;;5017705;28;19929;-65
2022/10/11 07:16:34;;;;;;;;;;;10.30;99.90;;;;;;5009532;28;20384;-66
2022/10/11 07:19:02;;;;;;;;;;;10.30;99.90;;;;;;5014306;28;20048;-65
2022/10/11 07:21:30;;;;;;;;;;;10.30;99.90;;;;;;5013579;28;20013;-67
2022/10/11 07:23:57;;;;;;;;;;;10.30;99.90;;;;;;5014860;28;20008;-71
2022/10/11 07:26:24;;;;;;;;;;;10.40;99.90;;;;;;5008264;28;19964;-65
2022/10/11 07:28:50;;;;;;;;;;;10.40;99.90;;;;;;5015158;28;19930;-65
2022/10/11 07:31:18;;;;;;;;;;;10.40;99.90;;;;;;5009370;28;20391;-66
2022/10/11 07:33:45;;;;;;;;;;;10.40;99.90;;;;;;5017614;28;19979;-67
2022/10/11 07:36:13;;;;;;;;;;;10.40;99.90;;;;;;5012741;28;19926;-66
2022/10/11 07:38:40;;;;;;;;;;;10.40;99.90;;;;;;5009638;28;19933;-68
2022/10/11 07:41:07;;;;;;;;;;;10.40;99.90;;;;;;5025130;28;20340;-65
2022/10/11 07:43:34;;;;;;;;;;;10.50;99.90;;;;;;5016750;28;19933;-66
2022/10/11 07:46:02;;;;;;;;;;;10.50;99.90;;;;;;5008964;28;20029;-67
2022/10/11 07:48:30;;;;;;;;;;;10.60;99.90;;;;;;5013485;28;19941;-65
2022/10/11 07:51:05;;;;;;;;;;;10.60;99.90;;;;;;5013834;28;19932;-64
2022/10/11 07:53:36;;;;;;;;;;;10.60;99.90;;;;;;5012859;28;20008;-65
2022/10/11 07:56:03;;;;;;;;;;;10.70;99.90;;;;;;5007073;28;20422;-67
2022/10/11 07:58:30;;;;;;;;;;;10.60;99.90;;;;;;5009446;28;19929;-67
2022/10/11 08:00:57;;;;;;;;;;;10.60;99.90;;;;;;5010238;28;20099;-65
2022/10/11 08:03:24;;;;;;;;;;;10.60;99.90;;;;;;5018548;28;19928;-68
2022/10/11 08:05:51;;;;;;;;;;;10.60;99.90;;;;;;5010111;28;19929;-64
2022/10/11 08:08:18;;;;;;;;;;;10.70;99.90;;;;;;5010419;28;19925;-66
2022/10/11 08:10:45;;;;;;;;;;;10.60;99.90;;;;;;5011042;28;19929;-69
2022/10/11 08:13:11;;;;;;;;;;;10.60;99.90;;;;;;5018833;28;20489;-65
2022/10/11 08:15:38;;;;;;;;;;;10.70;99.90;;;;;;5011387;28;19957;-66
2022/10/11 08:18:05;;;;;;;;;;;10.60;99.90;;;;;;5016134;28;20028;-68
2022/10/11 08:20:32;;;;;;;;;;;10.70;99.90;;;;;;5005369;28;20286;-66
2022/10/11 08:22:59;;;;;;;;;;;10.60;99.90;;;;;;5012947;28;20059;-66
2022/10/11 08:25:26;;;;;;;;;;;10.60;99.90;;;;;;5010646;28;20053;-67
2022/10/11 08:27:52;;;;;;;;;;;10.70;99.90;;;;;;5011019;28;19926;-66
2022/10/11 08:30:19;;;;;;;;;;;10.70;99.90;;;;;;5015070;28;19936;-66
2022/10/11 08:32:46;;;;;;;;;;;10.60;99.90;;;;;;5015906;28;20020;-68
2022/10/11 08:35:13;;;;;;;;;;;10.70;99.90;;;;;;5013577;28;20311;-65
2022/10/11 08:37:39;;;;;;;;;;;10.70;99.90;;;;;;5015113;28;19925;-64
2022/10/11 08:40:06;;;;;;;;;;;10.80;99.90;;;;;;5011725;28;20036;-70
2022/10/11 08:42:55;;;;;;;;;;;10.70;99.90;;;;;;5009165;28;20501;-67
2022/10/11 08:45:51;;;;;;;;;;;10.70;99.90;;;;;;5010888;28;19929;-68
2022/10/11 08:48:20;;;;;;;;;;;10.70;99.90;;;;;;5010527;28;19951;-67
2022/10/11 08:50:49;;;;;;;;;;;10.80;99.90;;;;;;5015929;28;20040;-66
2022/10/11 08:53:28;;;;;;;;;;;10.90;99.90;;;;;;5010551;28;19933;-65
2022/10/11 08:55:55;;;;;;;;;;;10.80;99.90;;;;;;5011069;28;20005;-71
2022/10/11 08:58:33;;;;;;;;;;;10.80;99.90;;;;;;5010659;28;19933;-66
2022/10/11 09:01:00;;;;;;;;;;;10.80;99.90;;;;;;5013940;28;20020;-65
2022/10/11 09:03:30;;;;;;;;;;;10.80;99.90;;;;;;5010038;28;19926;-66
2022/10/11 09:05:59;;;;;;;;;;;10.90;99.90;;;;;;5012172;28;20032;-71
2022/10/11 09:08:33;;;;;;;;;;;10.90;99.90;;;;;;5009943;28;19940;-67
2022/10/11 09:11:19;;;;;;;;;;;10.90;99.90;;;;;;5019456;28;19933;-65
2022/10/11 09:13:51;;;;;;;;;;;11.00;99.90;;;;;;5010625;28;19925;-70
2022/10/11 09:16:24;;;;;;;;;;;11.00;99.90;;;;;;5012696;28;19931;-66
2022/10/11 09:18:50;;;;;;;;;;;11.10;99.90;;;;;;5011820;28;19935;-65
2022/10/11 09:21:34;;;;;;;;;;;11.10;99.90;;;;;;5011735;28;19930;-71
2022/10/11 09:24:19;;;;;;;;;;;11.10;99.90;;;;;;5008431;28;19925;-68
2022/10/11 09:26:53;;;;;;;;;;;11.10;99.90;;;;;;5018378;28;19926;-66
2022/10/11 09:29:19;;;;;;;;;;;11.10;99.90;;;;;;5013539;28;19932;-65
2022/10/11 09:31:48;;;;;;;;;;;11.20;99.90;;;;;;5017615;28;19925;-65
2022/10/11 09:34:15;;;;;;;;;;;11.20;99.90;;;;;;5013401;28;19925;-65
2022/10/11 09:36:41;;;;;;;;;;;11.20;99.90;;;;;;5019277;28;19933;-67
2022/10/11 09:39:27;;;;;;;;;;;11.20;99.90;;;;;;5016220;28;19925;-66
2022/10/11 09:42:05;;;;;;;;;;;11.10;99.90;;;;;;5017884;28;19929;-66
2022/10/11 09:44:53;;;;;;;;;;;11.10;99.90;;;;;;5012007;28;20108;-65
2022/10/11 09:47:23;;;;;;;;;;;11.20;99.90;;;;;;5017641;28;19929;-67
2022/10/11 09:49:52;;;;;;;;;;;11.30;99.90;;;;;;5018156;28;19932;-67
2022/10/11 09:52:19;;;;;;;;;;;11.30;99.90;;;;;;5010343;28;19925;-65
2022/10/11 09:54:48;;;;;;;;;;;11.30;99.90;;;;;;5019079;28;19937;-71
2022/10/11 09:57:23;;;;;;;;;;;11.40;99.90;;;;;;5016839;28;19949;-66
2022/10/11 09:59:59;;;;;;;;;;;11.40;99.90;;;;;;5013522;28;19960;-67
2022/10/11 10:02:29;;;;;;;;;;;11.40;99.90;;;;;;5015590;28;20268;-65
2022/10/11 10:05:13;;;;;;;;;;;11.40;99.90;;;;;;5018964;28;19929;-65
2022/10/11 10:07:55;;;;;;;;;;;11.40;99.90;;;;;;5012435;28;19932;-64
2022/10/11 10:10:31;;;;;;;;;;;11.40;99.90;;;;;;5015802;28;20319;-66
2022/10/11 10:12:58;;;;;;;;;;;11.50;99.90;;;;;;5016089;28;20044;-67
2022/10/11 10:15:33;;;;;;;;;;;11.50;99.90;;;;;;5016918;28;19929;-66
2022/10/11 10:18:00;;;;;;;;;;;11.60;99.90;;;;;;5016621;28;20396;-65
2022/10/11 10:20:32;;;;;;;;;;;11.70;99.90;;;;;;5014122;28;20027;-64
2022/10/11 10:23:06;;;;;;;;;;;11.80;99.90;;;;;;5021388;28;19952;-66
2022/10/11 10:25:34;;;;;;;;;;;11.90;99.90;;;;;;5015169;28;19982;-65
2022/10/11 10:28:21;;;;;;;;;;;11.90;99.90;;;;;;5012609;28;20517;-65
2022/10/11 10:30:53;;;;;;;;;;;12.00;99.90;;;;;;5015679;28;20008;-67
2022/10/11 10:33:24;;;;;;;;;;;11.90;99.90;;;;;;5016740;28;19930;-67
2022/10/11 10:35:54;;;;;;;;;;;11.80;99.90;;;;;;5015186;28;20254;-68
2022/10/11 10:38:30;;;;;;;;;;;11.90;99.90;;;;;;5015032;28;20231;-65
2022/10/11 10:41:00;;;;;;;;;;;11.90;99.90;;;;;;5019194;28;19932;-65
2022/10/11 10:43:31;;;;;;;;;;;11.90;99.90;;;;;;5020141;28;19932;-66
2022/10/11 10:46:03;;;;;;;;;;;11.90;99.90;;;;;;5021792;28;19933;-69
2022/10/11 10:48:34;;;;;;;;;;;11.90;99.90;;;;;;5011803;28;20627;-65
2022/10/11 10:51:27;;;;;;;;;;;12.00;99.90;;;;;;5023151;28;19936;-64
2022/10/11 10:54:23;;;;;;;;;;;11.90;99.90;;;;;;5018876;28;19932;-65
2022/10/11 10:56:51;;;;;;;;;;;11.90;99.90;;;;;;5008917;28;20010;-71
2022/10/11 10:59:28;;;;;;;;;;;12.10;99.90;;;;;;5011434;28;20415;-65
2022/10/11 11:02:00;;;;;;;;;;;12.20;99.90;;;;;;5017696;28;19968;-67
2022/10/11 11:05:07;;;;;;;;;;;12.20;99.90;;;;;;5016691;28;19933;-68
2022/10/11 11:07:34;;;;;;;;;;;12.00;99.90;;;;;;5019152;28;20017;-68
2022/10/11 11:10:01;;;;;;;;;;;12.00;99.90;;;;;;5015317;28;19928;-66
2022/10/11 11:12:37;;;;;;;;;;;12.10;99.90;;;;;;5011324;28;20346;-68
2022/10/11 11:15:10;;;;;;;;;;;12.20;99.90;;;;;;5017025;28;20478;-66
2022/10/11 11:17:56;;;;;;;;;;;12.20;99.90;;;;;;5012375;28;20542;-65
2022/10/11 11:20:31;;;;;;;;;;;12.10;99.90;;;;;;4973343;28;19940;-68
2022/10/11 11:22:58;;;;;;;;;;;12.10;99.90;;;;;;5010248;28;19925;-67
2022/10/11 11:25:43;;;;;;;;;;;12.10;99.90;;;;;;5014885;28;19929;-70
2022/10/11 11:28:10;;;;;;;;;;;12.20;99.90;;;;;;5010667;28;20405;-67
2022/10/11 11:30:46;;;;;;;;;;;12.10;99.90;;;;;;5010750;28;19936;-66
2022/10/11 11:33:34;;;;;;;;;;;12.20;99.90;;;;;;5015481;28;20330;-66
2022/10/11 11:36:04;;;;;;;;;;;12.20;99.90;;;;;;5016374;28;19991;-67
2022/10/11 11:38:34;;;;;;;;;;;12.20;99.90;;;;;;5011930;28;19929;-67
2022/10/11 11:41:04;;;;;;;;;;;12.40;99.90;;;;;;5011531;28;20228;-66
2022/10/11 11:43:41;;;;;;;;;;;12.40;99.90;;;;;;5013473;28;20417;-67
2022/10/11 11:46:12;;;;;;;;;;;12.50;99.90;;;;;;5012716;28;20404;-66
2022/10/11 11:48:40;;;;;;;;;;;12.40;99.90;;;;;;5009823;28;19960;-66
2022/10/11 11:51:33;;;;;;;;;;;12.40;99.90;;;;;;5013182;28;20255;-66
2022/10/11 11:54:09;;;;;;;;;;;12.40;99.90;;;;;;5008964;28;20313;-65
2022/10/11 11:56:54;;;;;;;;;;;12.30;99.90;;;;;;5011231;28;20028;-67
2022/10/11 11:59:39;;;;;;;;;;;12.30;99.90;;;;;;5012705;28;20044;-66
2022/10/11 12:02:25;;;;;;;;;;;12.50;99.90;;;;;;5015034;28;20013;-67
2022/10/11 12:04:52;;;;;;;;;;;12.50;99.90;;;;;;5013218;28;19932;-67
2022/10/11 12:07:21;;;;;;;;;;;12.50;99.90;;;;;;5010939;28;19935;-66
2022/10/11 12:09:50;;;;;;;;;;;12.50;99.90;;;;;;5017595;28;20356;-67
2022/10/11 12:12:25;;;;;;;;;;;12.50;99.90;;;;;;5012825;28;20012;-66
2022/10/11 12:15:01;;;;;;;;;;;12.60;99.90;;;;;;5011512;28;20466;-66
2022/10/11 12:17:28;;;;;;;;;;;12.50;99.90;;;;;;5016523;28;19987;-65
2022/10/11 12:20:03;;;;;;;;;;;12.50;99.90;;;;;;5010337;28;19936;-68
2022/10/11 12:22:30;;;;;;;;;;;12.60;99.90;;;;;;5013004;28;19929;-67
2022/10/11 12:24:59;;;;;;;;;;;12.70;99.90;;;;;;5012347;28;20400;-66
2022/10/11 12:27:42;;;;;;;;;;;12.70;99.90;;;;;;5008994;28;19925;-67
2022/10/11 12:30:27;;;;;;;;;;;12.60;99.90;;;;;;5012437;28;19983;-66
2022/10/11 12:33:02;;;;;;;;;;;12.60;99.90;;;;;;5009063;28;20406;-65
2022/10/11 12:35:28;;;;;;;;;;;12.60;99.90;;;;;;5010636;28;20036;-65
2022/10/11 12:38:14;;;;;;;;;;;12.60;99.90;;;;;;5008397;28;19936;-68
2022/10/11 12:40:42;;;;;;;;;;;12.70;99.90;;;;;;5011408;28;19929;-66
2022/10/11 12:43:21;;;;;;;;;;;12.70;99.90;;;;;;5014638;28;19933;-66
2022/10/11 12:45:48;;;;;;;;;;;12.70;99.90;;;;;;5010965;28;19991;-66
2022/10/11 12:48:15;;;;;;;;;;;12.70;99.90;;;;;;5008090;28;20243;-70
2022/10/11 12:51:10;;;;;;;;;;;12.80;99.90;;;;;;5016456;28;19925;-65
2022/10/11 12:53:56;;;;;;;;;;;12.90;99.90;;;;;;5016342;28;19941;-66
2022/10/11 12:56:46;;;;;;;;;;;13.00;99.90;;;;;;5010160;28;20359;-68
2022/10/11 12:59:21;;;;;;;;;;;13.10;99.90;;;;;;5024656;28;20275;-65
2022/10/11 13:01:50;;;;;;;;;;;13.10;99.90;;;;;;5010024;28;19929;-66
2022/10/11 13:04:19;;;;;;;;;;;13.30;99.90;;;;;;5014323;28;19925;-67
2022/10/11 13:06:52;;;;;;;;;;;13.10;99.90;;;;;;5014876;28;19931;-67
2022/10/11 13:09:27;;;;;;;;;;;13.00;99.90;;;;;;5013876;28;19925;-66
2022/10/11 13:12:05;;;;;;;;;;;13.00;99.90;;;;;;5020476;28;20020;-67
2022/10/11 13:14:36;;;;;;;;;;;13.00;99.90;;;;;;5013224;28;19926;-66
2022/10/11 13:17:12;;;;;;;;;;;13.10;99.90;;;;;;5015892;28;19933;-66
2022/10/11 13:19:39;;;;;;;;;;;13.00;99.90;;;;;;5020339;28;19936;-68
2022/10/11 13:22:21;;;;;;;;;;;13.00;99.90;;;;;;5015018;28;19933;-67
2022/10/11 13:24:48;;;;;;;;;;;13.10;99.90;;;;;;5016237;28;19929;-67
2022/10/11 13:27:20;;;;;;;;;;;13.10;99.90;;;;;;5018343;28;19929;-66
2022/10/11 13:29:47;;;;;;;;;;;13.20;99.90;;;;;;5014263;28;20376;-66
2022/10/11 13:32:25;;;;;;;;;;;13.20;99.90;;;;;;5015725;28;20263;-67
2022/10/11 13:34:54;;;;;;;;;;;13.20;99.90;;;;;;5017143;28;19933;-66
2022/10/11 13:37:27;;;;;;;;;;;13.20;99.90;;;;;;5015116;28;20096;-66
2022/10/11 13:39:55;;;;;;;;;;;13.20;99.90;;;;;;5014945;28;20385;-68
2022/10/11 13:42:31;;;;;;;;;;;13.20;99.90;;;;;;5015086;28;19982;-66
2022/10/11 13:44:58;;;;;;;;;;;13.30;99.90;;;;;;5012109;28;20137;-67
2022/10/11 13:47:27;;;;;;;;;;;13.30;99.90;;;;;;5011964;28;19929;-67
2022/10/11 13:50:09;;;;;;;;;;;13.40;99.90;;;;;;5015921;28;20006;-69
2022/10/11 13:52:47;;;;;;;;;;;13.40;99.90;;;;;;5014881;28;19929;-66
2022/10/11 13:55:33;;;;;;;;;;;13.40;99.90;;;;;;5016002;28;20544;-66
2022/10/11 13:58:02;;;;;;;;;;;13.40;99.90;;;;;;5017346;28;20011;-66
2022/10/11 14:00:34;;;;;;;;;;;13.30;99.90;;;;;;5013604;28;20012;-65
2022/10/11 14:03:16;;;;;;;;;;;13.20;99.90;;;;;;5013740;28;19940;-65
2022/10/11 14:05:52;;;;;;;;;;;13.00;99.90;;;;;;5014598;28;19929;-65
2022/10/11 14:08:19;;;;;;;;;;;12.80;99.90;;;;;;5014517;28;19947;-66
2022/10/11 14:10:46;;;;;;;;;;;12.80;99.90;;;;;;5011766;28;19926;-67
2022/10/11 14:13:23;;;;;;;;;;;12.80;99.90;;;;;;5019079;28;20043;-66
2022/10/11 14:15:59;;;;;;;;;;;12.90;99.90;;;;;;5011925;28;20398;-66
2022/10/11 14:18:35;;;;;;;;;;;13.00;99.90;;;;;;5014246;28;19933;-66
2022/10/11 14:21:22;;;;;;;;;;;13.00;99.90;;;;;;5014035;28;19925;-66
2022/10/11 14:23:50;;;;;;;;;;;13.00;99.90;;;;;;5012370;28;19932;-65
2022/10/11 14:26:18;;;;;;;;;;;12.90;99.90;;;;;;5014210;28;20359;-66
2022/10/11 14:28:48;;;;;;;;;;;12.90;99.90;;;;;;5016538;28;19929;-68
2022/10/11 14:31:15;;;;;;;;;;;12.90;99.90;;;;;;5011821;28;20039;-71
2022/10/11 14:33:41;;;;;;;;;;;13.00;99.90;;;;;;5017420;28;19925;-67
2022/10/11 14:36:10;;;;;;;;;;;13.10;99.90;;;;;;5013805;28;19930;-69